Time;durP1;ratioP1;P1;durP2;ratioP2;P2;SDS_P1;SDS_P2;PMS_P1;PMS_P2;Temp;Humidity;BMP_temperature;BMP_pressure;BME280_temperature;BME280_humidity;BME280_pressure;Samples;Min_cycle;Max_cycle;Signal;HPM_P1;HPM_P2
2023/07/19 00:00:07;;;;;;;1.40;1.40;;;17.20;99.90;;;;;;5033308;28;20543;-71
2023/07/19 00:02:32;;;;;;;2.07;1.27;;;17.40;99.90;;;;;;5033222;28;20825;-71
2023/07/19 00:04:58;;;;;;;1.30;1.20;;;17.60;99.90;;;;;;5033342;28;20410;-71
2023/07/19 00:07:24;;;;;;;3.20;2.67;;;17.30;99.90;;;;;;5033291;28;20199;-71
2023/07/19 00:09:50;;;;;;;1.87;1.50;;;17.20;99.90;;;;;;5033336;28;20585;-70
2023/07/19 00:12:15;;;;;;;3.80;3.50;;;17.50;99.90;;;;;;5033092;28;20205;-71
2023/07/19 00:14:41;;;;;;;1.50;1.40;;;17.70;99.90;;;;;;5033387;28;20496;-71
2023/07/19 00:17:07;;;;;;;1.30;1.20;;;17.20;99.90;;;;;;5033118;28;20248;-71
2023/07/19 00:19:33;;;;;;;1.33;1.17;;;;;;;;;;5032988;28;20238;-71
2023/07/19 00:21:58;;;;;;;0.70;0.70;;;17.30;99.90;;;;;;5033064;28;20457;-71
2023/07/19 00:24:24;;;;;;;0.80;0.80;;;17.20;99.90;;;;;;5033221;28;20448;-71
2023/07/19 00:26:50;;;;;;;2.00;1.90;;;17.10;99.90;;;;;;5033206;28;20179;-70
2023/07/19 00:29:15;;;;;;;1.60;1.50;;;17.30;99.90;;;;;;5033063;28;20168;-70
2023/07/19 00:31:41;;;;;;;1.13;1.13;;;;;;;;;;5032979;28;20174;-71
2023/07/19 00:34:07;;;;;;;4.97;1.73;;;17.60;99.90;;;;;;5033020;28;20680;-71
2023/07/19 00:36:33;;;;;;;2.23;1.47;;;17.30;99.90;;;;;;5033042;28;20455;-71
2023/07/19 00:38:58;;;;;;;1.20;1.20;;;17.30;99.90;;;;;;5033058;28;20198;-72
2023/07/19 00:41:24;;;;;;;2.30;1.80;;;17.50;99.90;;;;;;5032725;28;20199;-71
2023/07/19 00:43:49;;;;;;;3.23;1.70;;;17.20;99.90;;;;;;5033117;28;20175;-72
2023/07/19 00:46:15;;;;;;;2.43;2.33;;;17.10;99.90;;;;;;5033132;28;20175;-71
2023/07/19 00:48:44;;;;;;;3.00;2.70;;;17.20;99.90;;;;;;5032830;28;20191;-71
2023/07/19 00:51:09;;;;;;;1.37;1.27;;;17.30;99.90;;;;;;5032914;28;20186;-71
2023/07/19 00:53:38;;;;;;;2.17;2.03;;;17.20;99.90;;;;;;5033365;28;20417;-71
2023/07/19 00:56:04;;;;;;;1.27;1.20;;;17.00;99.90;;;;;;5036572;28;20427;-71
2023/07/19 00:58:30;;;;;;;1.53;1.43;;;17.00;99.90;;;;;;5036515;28;20793;-71
2023/07/19 01:00:57;;;;;;;0.83;0.83;;;17.20;99.90;;;;;;5036276;28;20410;-71
2023/07/19 01:03:23;;;;;;;2.03;1.83;;;17.30;99.90;;;;;;5036689;28;20441;-71
2023/07/19 01:05:49;;;;;;;1.60;1.50;;;17.20;99.90;;;;;;5036764;28;20433;-71
2023/07/19 01:08:15;;;;;;;1.40;0.90;;;16.40;99.90;;;;;;5036332;28;20194;-71
2023/07/19 01:10:41;;;;;;;1.73;1.10;;;17.00;99.90;;;;;;5036149;28;20414;-71
2023/07/19 01:13:09;;;;;;;1.67;1.57;;;17.30;99.90;;;;;;5036169;28;20417;-70
2023/07/19 01:15:36;;;;;;;1.57;1.43;;;17.00;99.90;;;;;;5036449;28;20467;-71
2023/07/19 01:18:02;;;;;;;1.17;0.90;;;17.00;99.90;;;;;;5035988;28;20467;-71
2023/07/19 01:20:28;;;;;;;1.70;1.50;;;16.80;99.90;;;;;;5036234;28;20420;-71
2023/07/19 01:22:55;;;;;;;2.07;1.97;;;17.00;99.90;;;;;;5035964;28;20461;-72
2023/07/19 01:25:21;;;;;;;2.40;1.47;;;17.30;99.90;;;;;;5035945;28;20421;-71
2023/07/19 01:27:47;;;;;;;1.47;1.37;;;17.10;99.90;;;;;;5035996;28;20861;-70
2023/07/19 01:30:13;;;;;;;3.43;1.83;;;17.00;99.90;;;;;;5035924;28;20433;-71
2023/07/19 01:32:39;;;;;;;5.03;2.30;;;17.30;99.90;;;;;;5035936;28;20171;-71
2023/07/19 01:35:05;;;;;;;3.20;2.53;;;17.00;99.90;;;;;;5036015;28;20496;-70
2023/07/19 01:37:30;;;;;;;1.57;1.47;;;16.80;99.90;;;;;;5035838;28;20429;-71
2023/07/19 01:39:56;;;;;;;2.10;1.93;;;17.30;99.90;;;;;;5036100;28;20778;-70
2023/07/19 01:42:22;;;;;;;1.83;1.73;;;16.90;99.90;;;;;;5035496;28;20607;-70
2023/07/19 01:44:47;;;;;;;2.10;1.90;;;17.30;99.90;;;;;;5035930;28;20175;-71
2023/07/19 01:47:13;;;;;;;2.17;2.00;;;17.30;99.90;;;;;;5035630;28;20194;-71
2023/07/19 01:49:40;;;;;;;0.80;0.80;;;17.00;99.90;;;;;;5035653;28;20174;-71
2023/07/19 01:52:06;;;;;;;4.97;3.23;;;16.10;99.90;;;;;;5035388;28;20424;-71
2023/07/19 01:54:32;;;;;;;1.97;1.87;;;;;;;;;;5035632;28;20914;-71
2023/07/19 01:56:59;;;;;;;2.00;1.73;;;;;;;;;;5035572;28;20421;-71
2023/07/19 01:59:25;;;;;;;1.10;1.00;;;17.10;99.90;;;;;;5035669;28;20414;-71
2023/07/19 02:01:51;;;;;;;1.43;1.33;;;16.80;99.90;;;;;;5035254;28;20453;-71
2023/07/19 02:04:17;;;;;;;1.27;1.17;;;;;;;;;;5035482;28;20916;-70
2023/07/19 02:06:42;;;;;;;1.37;1.27;;;17.30;99.90;;;;;;5034799;28;20393;-71
2023/07/19 02:09:08;;;;;;;1.57;1.10;;;17.20;99.90;;;;;;5035455;28;20409;-71
2023/07/19 02:11:34;;;;;;;1.80;1.70;;;17.10;99.90;;;;;;5035142;28;20186;-70
2023/07/19 02:14:00;;;;;;;1.30;1.20;;;;;;;;;;5035237;28;20177;-70
2023/07/19 02:16:26;;;;;;;4.10;3.23;;;17.20;99.90;;;;;;5035202;28;20461;-70
2023/07/19 02:18:51;;;;;;;1.07;1.07;;;17.60;99.90;;;;;;5035026;28;20453;-72
2023/07/19 02:21:17;;;;;;;4.80;2.03;;;17.60;99.90;;;;;;5034889;28;20202;-71
2023/07/19 02:23:43;;;;;;;54.73;3.90;;;17.60;99.90;;;;;;5035075;28;20191;-71
2023/07/19 02:26:09;;;;;;;1.80;1.70;;;17.40;99.90;;;;;;5035058;28;20171;-70
2023/07/19 02:28:35;;;;;;;3.50;2.53;;;;;;;;;;5034862;28;20491;-72
2023/07/19 02:31:01;;;;;;;2.43;1.63;;;;;;;;;;5034626;28;20253;-70
2023/07/19 02:33:27;;;;;;;3.30;1.60;;;17.50;99.90;;;;;;5034934;28;20501;-71
2023/07/19 02:35:54;;;;;;;1.00;1.00;;;17.70;99.90;;;;;;5035001;28;20961;-71
2023/07/19 02:38:20;;;;;;;3.13;2.83;;;17.60;99.90;;;;;;5034651;28;20223;-71
2023/07/19 02:40:47;;;;;;;5.53;1.73;;;;;;;;;;5034564;28;20405;-71
2023/07/19 02:43:13;;;;;;;1.60;1.50;;;;;;;;;;5034188;28;20510;-71
2023/07/19 02:45:38;;;;;;;1.50;1.40;;;17.40;99.90;;;;;;5034306;28;20402;-71
2023/07/19 02:48:04;;;;;;;1.87;1.77;;;17.70;99.90;;;;;;5034605;28;20433;-71
2023/07/19 02:50:30;;;;;;;1.37;1.27;;;17.70;99.90;;;;;;5034680;28;20173;-70
2023/07/19 02:52:56;;;;;;;2.33;2.20;;;18.20;99.90;;;;;;5034342;28;20650;-70
2023/07/19 02:55:21;;;;;;;2.00;1.80;;;18.20;99.90;;;;;;5034566;28;20183;-70
2023/07/19 02:57:47;;;;;;;1.63;1.27;;;18.00;99.90;;;;;;5034273;28;20641;-71
2023/07/19 03:00:13;;;;;;;4.10;3.40;;;18.20;99.90;;;;;;5034927;28;20262;-71
2023/07/19 03:02:39;;;;;;;0.60;0.60;;;;;;;;;;5034049;28;20235;-71
2023/07/19 03:05:05;;;;;;;1.50;1.40;;;17.90;99.90;;;;;;5034487;28;20167;-72
2023/07/19 03:07:32;;;;;;;1.80;1.70;;;18.30;99.90;;;;;;5034267;28;20428;-71
2023/07/19 03:09:57;;;;;;;1.90;1.70;;;18.00;99.90;;;;;;5034299;28;20788;-71
2023/07/19 03:12:23;;;;;;;5.93;3.53;;;18.70;99.90;;;;;;5033993;28;20406;-70
2023/07/19 03:14:48;;;;;;;5.80;1.73;;;18.40;99.90;;;;;;5016412;28;20179;-71
2023/07/19 03:17:14;;;;;;;2.27;2.07;;;18.30;99.90;;;;;;5033189;28;20198;-72
2023/07/19 03:19:39;;;;;;;1.50;1.40;;;18.70;99.90;;;;;;5033727;28;20181;-72
2023/07/19 03:22:05;;;;;;;3.23;2.80;;;18.50;99.90;;;;;;5033720;28;20195;-70
2023/07/19 03:24:31;;;;;;;2.13;2.03;;;18.70;99.90;;;;;;5034010;28;20180;-71
2023/07/19 03:26:57;;;;;;;1.37;1.27;;;19.20;99.90;;;;;;5033838;28;20792;-71
2023/07/19 03:29:22;;;;;;;2.63;2.30;;;19.00;99.90;;;;;;5034111;28;20596;-71
2023/07/19 03:31:48;;;;;;;2.80;2.57;;;19.00;99.90;;;;;;5016062;28;20428;-70
2023/07/19 03:34:14;;;;;;;2.23;2.13;;;;;;;;;;5033742;28;20186;-72
2023/07/19 03:36:40;;;;;;;3.13;2.93;;;19.50;99.90;;;;;;5033077;28;20182;-70
2023/07/19 03:39:05;;;;;;;2.53;2.33;;;19.30;99.90;;;;;;5033900;28;20425;-71
2023/07/19 03:41:31;;;;;;;2.97;2.47;;;19.70;99.90;;;;;;5033226;28;20287;-71
2023/07/19 03:43:57;;;;;;;2.50;1.90;;;19.40;99.90;;;;;;5033734;28;20524;-71
2023/07/19 03:46:22;;;;;;;7.20;1.87;;;19.60;99.90;;;;;;5033558;28;20229;-70
2023/07/19 03:48:48;;;;;;;3.40;2.77;;;19.70;99.90;;;;;;5033475;28;20185;-72
2023/07/19 03:51:14;;;;;;;2.43;2.23;;;19.60;99.90;;;;;;5033418;28;20178;-71
2023/07/19 03:53:40;;;;;;;2.17;2.07;;;20.00;99.90;;;;;;5033728;28;20206;-71
2023/07/19 03:56:06;;;;;;;3.93;3.47;;;20.00;99.90;;;;;;5033639;28;20182;-71
2023/07/19 03:58:31;;;;;;;1.43;1.33;;;20.20;99.90;;;;;;5033305;28;20201;-72
2023/07/19 04:00:59;;;;;;;2.87;2.10;;;20.20;99.90;;;;;;5033221;28;20424;-72
2023/07/19 04:03:26;;;;;;;6.20;3.03;;;20.20;99.90;;;;;;5033507;28;20206;-71
2023/07/19 04:05:54;;;;;;;2.10;1.93;;;20.20;99.90;;;;;;5033524;28;20859;-70
2023/07/19 04:08:20;;;;;;;2.17;2.00;;;20.20;99.90;;;;;;5033420;28;20445;-70
2023/07/19 04:10:46;;;;;;;3.07;2.80;;;20.40;99.90;;;;;;5033202;28;20406;-72
2023/07/19 04:13:13;;;;;;;2.70;2.50;;;20.20;99.90;;;;;;5033458;28;20409;-70
2023/07/19 04:15:39;;;;;;;2.00;1.90;;;20.40;99.90;;;;;;5033143;28;20414;-70
2023/07/19 04:18:05;;;;;;;14.67;5.00;;;20.40;99.90;;;;;;5033030;28;20460;-72
2023/07/19 04:20:31;;;;;;;2.00;1.90;;;20.50;99.90;;;;;;5033242;28;20508;-71
2023/07/19 04:22:57;;;;;;;2.70;2.50;;;20.50;99.90;;;;;;5032985;28;20450;-71
2023/07/19 04:25:24;;;;;;;2.03;1.90;;;20.60;99.90;;;;;;5033146;28;20445;-72
2023/07/19 04:27:53;;;;;;;1.37;1.30;;;20.50;99.90;;;;;;5033333;28;20194;-72
2023/07/19 04:30:19;;;;;;;1.70;1.60;;;20.50;99.90;;;;;;5036124;28;20417;-72
2023/07/19 04:32:45;;;;;;;2.17;2.07;;;20.50;99.90;;;;;;5036959;28;20410;-72
2023/07/19 04:35:11;;;;;;;3.07;1.90;;;20.60;99.90;;;;;;5037075;28;20734;-70
2023/07/19 04:37:38;;;;;;;2.10;1.97;;;20.80;99.90;;;;;;5036979;28;20429;-71
2023/07/19 04:40:06;;;;;;;2.20;2.07;;;20.60;99.90;;;;;;5036959;28;20409;-71
2023/07/19 04:42:32;;;;;;;2.20;1.77;;;20.70;99.90;;;;;;5036556;28;20531;-71
2023/07/19 04:44:57;;;;;;;1.10;1.00;;;20.70;99.90;;;;;;5036959;28;20453;-70
2023/07/19 04:47:23;;;;;;;2.60;2.17;;;20.60;99.90;;;;;;5036750;28;20455;-72
2023/07/19 04:49:49;;;;;;;1.63;1.53;;;20.80;99.90;;;;;;5036786;28;20182;-71
2023/07/19 04:52:14;;;;;;;1.53;1.47;;;20.50;99.90;;;;;;5036436;28;20607;-71
2023/07/19 04:54:40;;;;;;;1.23;1.20;;;;;;;;;;5019079;28;20177;-71
2023/07/19 04:57:06;;;;;;;2.70;2.50;;;20.70;99.90;;;;;;5036700;28;20192;-71
2023/07/19 04:59:32;;;;;;;1.80;1.70;;;;;;;;;;5036544;28;20426;-71
2023/07/19 05:01:58;;;;;;;0.80;0.80;;;20.70;99.90;;;;;;5036275;28;20496;-71
2023/07/19 05:04:24;;;;;;;1.20;1.13;;;20.80;99.90;;;;;;5036545;28;20407;-72
2023/07/19 05:06:50;;;;;;;5.40;2.40;;;20.60;99.90;;;;;;5036347;28;20406;-71
2023/07/19 05:09:16;;;;;;;2.17;1.70;;;20.70;99.90;;;;;;5036517;28;20173;-71
2023/07/19 05:11:42;;;;;;;2.07;1.97;;;20.90;99.90;;;;;;5036225;28;20253;-70
2023/07/19 05:14:08;;;;;;;4.40;2.07;;;21.90;99.90;;;;;;5036418;28;20840;-72
2023/07/19 05:16:34;;;;;;;3.33;1.97;;;22.00;99.90;;;;;;5036203;28;20404;-71
2023/07/19 05:19:00;;;;;;;1.60;1.50;;;22.20;99.90;;;;;;5035895;28;20459;-70
2023/07/19 05:21:25;;;;;;;2.87;2.03;;;22.30;99.90;;;;;;5036025;28;20190;-71
2023/07/19 05:23:51;;;;;;;1.33;1.23;;;22.40;99.90;;;;;;5036348;28;20205;-71
2023/07/19 05:26:18;;;;;;;1.37;1.27;;;22.80;99.90;;;;;;5036258;28;20206;-72
2023/07/19 05:28:45;;;;;;;1.50;1.40;;;22.70;99.90;;;;;;5036554;28;20471;-72
2023/07/19 05:31:11;;;;;;;1.80;1.67;;;22.80;99.90;;;;;;5035755;28;20913;-72
2023/07/19 05:33:37;;;;;;;1.37;1.27;;;22.80;99.90;;;;;;5036012;28;20394;-72
2023/07/19 05:36:03;;;;;;;1.70;1.60;;;22.70;99.90;;;;;;5035847;28;20451;-71
2023/07/19 05:38:29;;;;;;;1.17;0.90;;;;;;;;;;5035793;28;20430;-71
2023/07/19 05:41:02;;;;;;;2.07;1.87;;;22.90;99.90;;;;;;5034885;28;20451;-72
2023/07/19 05:43:28;;;;;;;1.10;1.10;;;22.50;99.90;;;;;;5035706;28;20467;-71
2023/07/19 05:46:01;;;;;;;1.00;1.00;;;22.60;99.90;;;;;;5035726;28;20397;-70
2023/07/19 05:48:27;;;;;;;1.10;0.90;;;;;;;;;;5017913;28;20433;-72
2023/07/19 05:50:52;;;;;;;1.83;1.60;;;22.70;99.90;;;;;;5035551;28;20371;-71
2023/07/19 05:53:18;;;;;;;0.90;0.90;;;22.90;99.90;;;;;;5035571;28;20409;-71
2023/07/19 05:55:43;;;;;;;2.27;2.17;;;22.90;99.90;;;;;;5035654;28;20167;-71
2023/07/19 05:58:09;;;;;;;1.57;1.40;;;22.60;99.90;;;;;;5035684;28;20194;-72
2023/07/19 06:00:34;;;;;;;1.20;1.03;;;22.90;99.90;;;;;;5035654;28;20220;-71
2023/07/19 06:03:00;;;;;;;2.23;2.03;;;22.80;99.90;;;;;;5035254;28;20194;-71
2023/07/19 06:05:26;;;;;;;1.30;1.20;;;22.70;99.90;;;;;;5035526;28;20166;-72
2023/07/19 06:07:52;;;;;;;0.87;0.87;;;22.50;99.90;;;;;;5035340;28;20186;-72
2023/07/19 06:10:18;;;;;;;1.80;1.70;;;22.30;99.90;;;;;;5035456;28;20705;-72
2023/07/19 06:12:44;;;;;;;2.10;1.80;;;22.50;99.90;;;;;;5035124;28;20181;-71
2023/07/19 06:15:10;;;;;;;1.03;0.93;;;22.10;99.90;;;;;;5035213;28;20405;-72
2023/07/19 06:17:36;;;;;;;5.70;1.20;;;22.10;99.90;;;;;;5017240;28;20489;-71
2023/07/19 06:20:07;;;;;;;3.23;2.00;;;22.20;99.90;;;;;;5035287;28;20408;-71
2023/07/19 06:22:33;;;;;;;1.00;1.00;;;22.00;99.90;;;;;;5034789;28;20458;-70
2023/07/19 06:24:59;;;;;;;1.33;1.07;;;22.30;99.90;;;;;;5035158;28;20472;-71
2023/07/19 06:27:25;;;;;;;3.30;2.17;;;22.10;99.90;;;;;;5035073;28;20890;-70
2023/07/19 06:29:51;;;;;;;2.20;1.50;;;22.20;99.90;;;;;;5034916;28;20540;-71
2023/07/19 06:32:17;;;;;;;1.73;1.30;;;;;;;;;;5034768;28;20406;-72
2023/07/19 06:34:43;;;;;;;0.93;0.93;;;23.20;99.90;;;;;;5034998;28;20171;-72
2023/07/19 06:37:08;;;;;;;3.70;2.50;;;24.20;99.90;;;;;;5034790;28;20761;-72
2023/07/19 06:39:34;;;;;;;1.17;1.07;;;24.70;99.90;;;;;;5034633;28;20387;-71
2023/07/19 06:42:00;;;;;;;3.37;1.40;;;24.60;99.90;;;;;;5034547;28;20296;-71
2023/07/19 06:44:26;;;;;;;1.03;0.93;;;24.80;97.50;;;;;;5034874;28;20213;-72
2023/07/19 06:46:52;;;;;;;1.13;1.10;;;26.00;99.90;;;;;;5034679;28;20434;-71
2023/07/19 06:49:18;;;;;;;4.40;1.93;;;25.70;94.90;;;;;;5034509;28;20163;-71
2023/07/19 06:51:44;;;;;;;1.20;1.10;;;25.40;95.20;;;;;;5034234;28;20961;-72
2023/07/19 06:54:10;;;;;;;1.00;1.00;;;25.70;99.90;;;;;;5034470;28;20544;-72
2023/07/19 06:56:35;;;;;;;1.10;1.03;;;25.90;94.00;;;;;;5034375;28;20174;-72
2023/07/19 06:59:01;;;;;;;2.20;2.00;;;25.70;99.90;;;;;;5034428;28;20237;-71
2023/07/19 07:01:26;;;;;;;1.77;1.50;;;25.40;99.90;;;;;;5033002;28;20252;-71
2023/07/19 07:03:52;;;;;;;1.20;0.90;;;25.00;99.90;;;;;;5033908;28;20175;-71
2023/07/19 07:06:18;;;;;;;1.40;1.30;;;25.30;99.90;;;;;;5032793;28;20173;-70
2023/07/19 07:08:44;;;;;;;1.47;1.37;;;25.20;94.40;;;;;;5034322;28;20186;-71
2023/07/19 07:11:10;;;;;;;2.33;1.63;;;25.70;99.90;;;;;;5034081;28;20250;-71
2023/07/19 07:13:35;;;;;;;1.23;1.10;;;25.90;93.20;;;;;;5034307;28;20491;-71
2023/07/19 07:16:02;;;;;;;0.93;0.87;;;25.90;92.80;;;;;;5034141;28;20653;-71
2023/07/19 07:18:28;;;;;;;1.27;0.97;;;25.70;93.00;;;;;;5033963;28;20201;-71
2023/07/19 07:20:54;;;;;;;1.83;1.27;;;;;;;;;;5034140;28;20392;-71
2023/07/19 07:23:21;;;;;;;1.53;1.43;;;25.20;99.90;;;;;;5034248;28;20426;-71
2023/07/19 07:25:53;;;;;;;1.00;1.00;;;25.50;99.90;;;;;;5034070;28;20854;-71
2023/07/19 07:28:18;;;;;;;1.90;0.80;;;25.70;93.20;;;;;;5033741;28;20431;-70
2023/07/19 07:30:44;;;;;;;1.23;1.17;;;25.80;99.90;;;;;;5033408;28;20377;-70
2023/07/19 07:33:10;;;;;;;1.23;1.13;;;;;;;;;;5033447;28;20182;-71
2023/07/19 07:35:35;;;;;;;2.80;1.00;;;26.10;99.90;;;;;;5033052;28;20205;-71
2023/07/19 07:38:01;;;;;;;2.00;1.60;;;26.30;91.90;;;;;;5032157;28;20407;-70
2023/07/19 07:40:27;;;;;;;0.73;0.73;;;26.80;91.90;;;;;;5032344;28;20167;-72
2023/07/19 07:42:53;;;;;;;1.60;1.50;;;27.50;90.20;;;;;;5032961;28;20488;-71
2023/07/19 07:45:19;;;;;;;0.97;0.97;;;28.10;85.10;;;;;;5033099;28;20222;-72
2023/07/19 07:47:44;;;;;;;1.40;1.00;;;28.40;84.70;;;;;;5032995;28;20651;-71
2023/07/19 07:50:10;;;;;;;1.10;1.00;;;28.90;81.20;;;;;;5032982;28;20189;-72
2023/07/19 07:52:36;;;;;;;1.53;1.40;;;30.40;80.70;;;;;;5033096;28;20183;-71
2023/07/19 07:55:04;;;;;;;1.57;1.03;;;32.10;74.00;;;;;;5033730;28;20615;-72
2023/07/19 07:57:33;;;;;;;0.60;0.60;;;33.90;67.60;;;;;;5033461;28;20187;-72
2023/07/19 07:59:58;;;;;;;2.60;1.13;;;35.00;60.00;;;;;;5033450;28;20416;-72
2023/07/19 08:02:24;;;;;;;1.37;1.10;;;36.20;56.60;;;;;;5033133;28;20441;-72
2023/07/19 08:04:52;;;;;;;2.33;1.27;;;37.40;53.60;;;;;;5033040;28;20163;-72
2023/07/19 08:07:17;;;;;;;0.90;0.90;;;38.50;50.80;;;;;;5033425;28;20190;-72
2023/07/19 08:09:43;;;;;;;1.10;1.10;;;39.40;46.70;;;;;;5033373;28;20409;-72
2023/07/19 08:12:09;;;;;;;1.10;1.00;;;39.20;45.50;;;;;;5015387;28;20276;-72
2023/07/19 08:14:36;;;;;;;1.93;1.83;;;39.20;43.40;;;;;;5033296;28;20173;-72
2023/07/19 08:17:02;;;;;;;1.30;1.20;;;39.10;44.00;;;;;;5033324;28;20316;-72
2023/07/19 08:19:27;;;;;;;1.00;0.80;;;39.20;44.70;;;;;;5032577;28;20504;-72
2023/07/19 08:21:59;;;;;;;1.83;1.20;;;38.90;42.10;;;;;;5031274;28;20202;-72
2023/07/19 08:24:24;;;;;;;1.03;0.93;;;39.50;43.20;;;;;;5032164;28;20178;-72
2023/07/19 08:26:50;;;;;;;1.37;0.90;;;39.80;64.10;;;;;;5032653;28;20901;-70
2023/07/19 08:29:15;;;;;;;1.70;0.97;;;39.50;41.60;;;;;;5032551;28;20178;-72
2023/07/19 08:31:42;;;;;;;1.07;0.97;;;37.60;44.00;;;;;;5032479;28;20655;-72
2023/07/19 08:34:08;;;;;;;1.77;1.40;;;37.20;45.10;;;;;;5032421;28;20177;-73
2023/07/19 08:36:33;;;;;;;1.47;0.97;;;37.80;46.00;;;;;;5033050;28;20405;-72
2023/07/19 08:38:59;;;;;;;1.40;1.30;;;37.90;44.80;;;;;;5032966;28;20226;-72
2023/07/19 08:41:26;;;;;;;2.80;1.90;;;37.70;44.60;;;;;;5032746;28;20290;-72
2023/07/19 08:43:55;;;;;;;1.17;0.80;;;37.10;46.30;;;;;;5033109;28;20258;-72
2023/07/19 08:46:21;;;;;;;1.30;1.10;;;;;;;;;;5033093;28;20402;-73
2023/07/19 08:48:48;;;;;;;1.37;0.97;;;37.60;42.80;;;;;;5033083;28;20501;-71
2023/07/19 08:51:15;;;;;;;2.13;1.40;;;38.00;42.50;;;;;;5032717;28;20398;-72
2023/07/19 08:53:41;;;;;;;1.37;1.27;;;38.00;43.00;;;;;;5032988;28;20455;-72
2023/07/19 08:56:07;;;;;;;4.67;1.37;;;;;;;;;;5032992;28;20411;-72
2023/07/19 08:58:39;;;;;;;7.83;1.50;;;39.20;42.00;;;;;;5032820;28;20183;-72
2023/07/19 09:01:06;;;;;;;1.33;1.23;;;39.50;42.50;;;;;;5032631;28;20431;-71
2023/07/19 09:03:33;;;;;;;0.80;0.80;;;39.00;43.00;;;;;;5032765;28;20772;-72
2023/07/19 09:05:58;;;;;;;1.17;1.07;;;38.50;42.20;;;;;;5033000;28;20425;-72
2023/07/19 09:08:40;;;;;;;1.63;1.53;;;37.30;41.30;;;;;;5032691;28;20917;-71
2023/07/19 09:11:09;;;;;;;1.30;1.20;;;37.10;44.20;;;;;;5032686;28;20167;-72
2023/07/19 09:13:38;;;;;;;1.53;1.37;;;37.30;44.30;;;;;;5033362;28;20406;-72
2023/07/19 09:16:04;;;;;;;3.57;1.87;;;37.70;42.70;;;;;;5033595;28;20415;-72
2023/07/19 09:18:36;;;;;;;3.70;1.40;;;38.20;42.40;;;;;;5036126;28;20453;-72
2023/07/19 09:21:04;;;;;;;1.50;0.97;;;38.30;40.20;;;;;;5036251;28;20760;-71
2023/07/19 09:23:36;;;;;;;1.70;1.23;;;38.50;40.60;;;;;;5036394;28;20878;-72
2023/07/19 09:26:04;;;;;;;2.17;1.50;;;37.80;41.80;;;;;;5018582;28;20445;-72
2023/07/19 09:28:30;;;;;;;1.73;1.10;;;38.10;42.30;;;;;;5036093;28;20475;-72
2023/07/19 09:31:05;;;;;;;1.47;1.37;;;38.60;41.70;;;;;;5035877;28;20426;-71
2023/07/19 09:33:31;;;;;;;1.07;0.90;;;38.60;42.00;;;;;;5036279;28;20939;-71
2023/07/19 09:35:57;;;;;;;1.17;0.93;;;37.90;40.50;;;;;;5036055;28;20437;-71
2023/07/19 09:38:25;;;;;;;1.30;1.10;;;37.90;42.90;;;;;;5035996;28;20603;-72
2023/07/19 09:40:52;;;;;;;1.23;1.10;;;38.30;41.80;;;;;;5035628;28;20430;-72
2023/07/19 09:43:19;;;;;;;0.90;0.90;;;38.70;41.60;;;;;;5035745;28;20456;-71
2023/07/19 09:45:47;;;;;;;1.20;1.10;;;37.80;39.40;;;;;;5035855;28;20408;-72
2023/07/19 09:48:16;;;;;;;1.47;1.13;;;37.00;40.30;;;;;;5035652;28;20473;-71
2023/07/19 09:50:42;;;;;;;1.57;0.80;;;36.90;42.40;;;;;;5035707;28;20394;-72
2023/07/19 09:53:13;;;;;;;1.37;1.27;;;36.70;43.60;;;;;;5035775;28;20413;-72
2023/07/19 09:55:39;;;;;;;1.20;0.83;;;;;;;;;;5035526;28;20401;-73
2023/07/19 09:58:08;;;;;;;1.87;1.07;;;36.60;43.10;;;;;;5035322;28;20430;-72
2023/07/19 10:00:35;;;;;;;1.63;1.17;;;36.70;45.30;;;;;;5017789;28;20414;-72
2023/07/19 10:03:00;;;;;;;1.27;1.00;;;36.80;44.70;;;;;;5035336;28;20457;-72
2023/07/19 10:05:28;;;;;;;0.70;0.70;;;36.50;42.00;;;;;;5035548;28;20420;-72
2023/07/19 10:08:03;;;;;;;1.13;1.03;;;36.50;43.20;;;;;;5035270;28;20191;-72
2023/07/19 10:10:39;;;;;;;0.80;0.80;;;36.30;45.00;;;;;;5035543;28;20407;-72
2023/07/19 10:13:08;;;;;;;2.10;0.97;;;36.40;40.90;;;;;;5035363;28;20397;-73
2023/07/19 10:15:35;;;;;;;1.43;1.33;;;36.30;41.40;;;;;;5035412;28;20418;-72
2023/07/19 10:18:01;;;;;;;1.37;0.97;;;35.80;41.90;;;;;;5035038;28;20453;-72
2023/07/19 10:20:35;;;;;;;1.63;1.27;;;35.10;43.70;;;;;;5035250;28;20421;-72
2023/07/19 10:23:05;;;;;;;2.57;1.47;;;34.80;46.00;;;;;;5034891;28;20555;-72
2023/07/19 10:25:33;;;;;;;7.20;2.43;;;34.30;45.40;;;;;;5035340;28;20456;-72
2023/07/19 10:28:04;;;;;;;1.70;1.57;;;34.60;46.60;;;;;;5034536;28;20471;-72
2023/07/19 10:30:50;;;;;;;1.33;1.00;;;34.30;44.00;;;;;;5034936;28;20776;-71
2023/07/19 10:33:25;;;;;;;1.70;1.37;;;34.30;44.30;;;;;;5035023;28;20445;-72
2023/07/19 10:35:56;;;;;;;1.20;0.93;;;34.10;44.80;;;;;;5035046;28;20444;-72
2023/07/19 10:38:24;;;;;;;0.93;0.80;;;34.00;44.30;;;;;;5034668;28;20437;-72
2023/07/19 10:41:00;;;;;;;1.40;1.17;;;34.00;43.20;;;;;;5034643;28;20413;-72
2023/07/19 10:43:28;;;;;;;1.03;0.93;;;34.00;45.90;;;;;;5034560;28;20484;-72
2023/07/19 10:45:55;;;;;;;1.30;0.90;;;33.80;44.40;;;;;;5034639;28;20492;-72
2023/07/19 10:48:28;;;;;;;1.40;0.90;;;33.80;43.30;;;;;;5016707;28;20442;-71
2023/07/19 10:50:58;;;;;;;0.63;0.63;;;33.50;46.20;;;;;;5034492;28;20405;-72
2023/07/19 10:53:25;;;;;;;1.17;1.10;;;33.30;44.10;;;;;;5034666;28;20410;-72
2023/07/19 10:55:54;;;;;;;1.33;1.23;;;33.40;45.50;;;;;;5034549;28;20410;-72
2023/07/19 10:58:21;;;;;;;1.50;1.00;;;33.30;42.70;;;;;;5034371;28;20449;-71
2023/07/19 11:00:46;;;;;;;2.90;1.20;;;33.20;44.20;;;;;;5034058;28;20456;-72
2023/07/19 11:03:14;;;;;;;1.07;1.00;;;33.10;44.70;;;;;;5034239;28;20492;-71
2023/07/19 11:05:45;;;;;;;1.27;1.17;;;32.70;46.80;;;;;;5034353;28;20168;-71
2023/07/19 11:08:21;;;;;;;1.53;1.33;;;31.40;72.70;;;;;;5034115;28;20437;-71
2023/07/19 11:10:49;;;;;;;1.70;1.33;;;30.90;46.20;;;;;;5034091;28;20437;-72
2023/07/19 11:13:20;;;;;;;0.93;0.90;;;29.90;49.40;;;;;;5034029;28;20417;-72
2023/07/19 11:15:51;;;;;;;1.73;0.93;;;30.00;50.00;;;;;;5034105;28;20406;-71
2023/07/19 11:18:28;;;;;;;2.17;1.20;;;29.90;52.10;;;;;;5033879;28;20449;-71
2023/07/19 11:20:58;;;;;;;1.03;0.70;;;30.10;82.70;;;;;;5033886;28;20424;-72
2023/07/19 11:23:25;;;;;;;1.00;1.00;;;30.10;49.90;;;;;;5034138;28;20508;-70
2023/07/19 11:26:01;;;;;;;0.77;0.70;;;30.10;52.60;;;;;;5033929;28;20413;-72
2023/07/19 11:28:36;;;;;;;1.30;0.80;;;30.00;50.60;;;;;;5033834;28;20436;-72
2023/07/19 11:31:03;;;;;;;1.10;0.90;;;29.90;47.10;;;;;;5033695;28;20779;-72
2023/07/19 11:33:29;;;;;;;1.40;1.30;;;29.60;48.30;;;;;;5033790;28;20420;-72
2023/07/19 11:35:55;;;;;;;2.00;1.40;;;29.20;71.40;;;;;;5034142;28;20410;-72
2023/07/19 11:38:21;;;;;;;1.23;1.13;;;29.10;50.20;;;;;;5033334;28;20214;-71
2023/07/19 11:40:48;;;;;;;0.80;0.80;;;28.60;75.40;;;;;;5033844;28;20416;-71
2023/07/19 11:43:13;;;;;;;1.13;1.03;;;28.90;78.00;;;;;;5034111;28;20543;-71
2023/07/19 11:45:39;;;;;;;1.20;1.07;;;28.90;50.50;;;;;;5034116;28;20494;-72
2023/07/19 11:48:05;;;;;;;1.30;1.20;;;29.00;49.90;;;;;;5033724;28;20206;-72
2023/07/19 11:50:30;;;;;;;3.50;1.23;;;29.20;51.30;;;;;;5033852;28;20206;-71
2023/07/19 11:52:56;;;;;;;1.73;1.60;;;;;;;;;;5033703;28;20206;-71
2023/07/19 11:55:23;;;;;;;1.10;1.00;;;29.00;83.00;;;;;;5033940;28;20201;-71
2023/07/19 11:57:51;;;;;;;2.30;2.10;;;29.10;52.40;;;;;;5033475;28;20432;-71
2023/07/19 12:00:20;;;;;;;0.73;0.73;;;28.80;50.30;;;;;;5033699;28;20475;-71
2023/07/19 12:02:46;;;;;;;1.13;0.90;;;28.10;83.70;;;;;;5033226;28;20937;-72
2023/07/19 12:05:15;;;;;;;0.87;0.87;;;28.10;72.50;;;;;;5033757;28;20409;-71
2023/07/19 12:07:40;;;;;;;0.97;0.83;;;28.30;78.70;;;;;;5033321;28;20474;-72
2023/07/19 12:10:07;;;;;;;2.83;1.80;;;28.20;75.70;;;;;;5033856;28;20415;-70
2023/07/19 12:12:33;;;;;;;1.00;0.90;;;28.20;83.20;;;;;;5033055;28;20219;-71
2023/07/19 12:15:05;;;;;;;1.13;0.83;;;28.00;88.60;;;;;;5033702;28;20421;-72
2023/07/19 12:17:31;;;;;;;1.43;0.80;;;28.30;84.40;;;;;;5032799;28;20440;-71
2023/07/19 12:19:59;;;;;;;1.43;1.33;;;28.00;52.10;;;;;;5033399;28;20414;-72
2023/07/19 12:22:27;;;;;;;0.57;0.57;;;28.10;86.30;;;;;;5032977;28;20498;-71
2023/07/19 12:24:53;;;;;;;2.33;1.40;;;28.20;52.70;;;;;;5033221;28;20410;-72
2023/07/19 12:27:18;;;;;;;0.90;0.90;;;28.20;87.70;;;;;;5033180;28;20396;-70
2023/07/19 12:29:44;;;;;;;1.73;1.13;;;27.90;84.50;;;;;;5033487;28;20170;-70
2023/07/19 12:32:10;;;;;;;0.63;0.63;;;28.00;85.80;;;;;;5015511;28;20669;-72
2023/07/19 12:34:36;;;;;;;0.83;0.80;;;27.90;76.30;;;;;;5033193;28;20181;-72
2023/07/19 12:37:02;;;;;;;1.20;1.00;;;27.80;52.80;;;;;;5033093;28;20218;-71
2023/07/19 12:39:27;;;;;;;0.80;0.80;;;27.80;53.20;;;;;;5033049;28;20265;-71
2023/07/19 12:41:55;;;;;;;1.80;1.17;;;27.90;84.40;;;;;;5032735;28;20194;-72
2023/07/19 12:44:21;;;;;;;0.83;0.83;;;27.20;83.80;;;;;;5033006;28;20647;-71
2023/07/19 12:46:48;;;;;;;1.70;1.33;;;26.90;82.60;;;;;;5032988;28;20384;-71
2023/07/19 12:49:15;;;;;;;0.83;0.83;;;26.90;86.60;;;;;;5033071;28;20890;-71
2023/07/19 12:51:42;;;;;;;1.00;0.90;;;26.80;77.50;;;;;;5036184;28;20420;-71